sensor_id;sensor_type;location;lat;lon;timestamp;temperature;humidity
38118;DHT22;23928;47.562;7.508;2024-02-21T00:00:40;5.20;99.90
38118;DHT22;23928;47.562;7.508;2024-02-21T00:03:07;5.30;99.90
38118;DHT22;23928;47.562;7.508;2024-02-21T00:05:33;5.40;99.90
38118;DHT22;23928;47.562;7.508;2024-02-21T00:07:59;5.40;99.90
38118;DHT22;23928;47.562;7.508;2024-02-21T00:10:25;5.50;99.90
38118;DHT22;23928;47.562;7.508;2024-02-21T00:12:51;5.40;99.90
38118;DHT22;23928;47.562;7.508;2024-02-21T00:15:16;5.40;99.90
38118;DHT22;23928;47.562;7.508;2024-02-21T00:17:43;5.50;99.90
38118;DHT22;23928;47.562;7.508;2024-02-21T00:20:09;5.50;99.90
38118;DHT22;23928;47.562;7.508;2024-02-21T00:22:35;5.50;99.90
38118;DHT22;23928;47.562;7.508;2024-02-21T00:25:01;5.50;99.90
38118;DHT22;23928;47.562;7.508;2024-02-21T00:27:27;5.50;99.90
38118;DHT22;23928;47.562;7.508;2024-02-21T00:29:53;5.50;99.90
38118;DHT22;23928;47.562;7.508;2024-02-21T00:32:19;5.50;99.90
38118;DHT22;23928;47.562;7.508;2024-02-21T00:34:44;5.50;99.90
38118;DHT22;23928;47.562;7.508;2024-02-21T00:37:10;5.50;99.90
38118;DHT22;23928;47.562;7.508;2024-02-21T00:39:35;5.60;99.90
38118;DHT22;23928;47.562;7.508;2024-02-21T00:42:02;5.60;99.90
38118;DHT22;23928;47.562;7.508;2024-02-21T00:44:28;5.60;99.90
38118;DHT22;23928;47.562;7.508;2024-02-21T00:46:54;5.60;99.90
38118;DHT22;23928;47.562;7.508;2024-02-21T00:49:19;5.60;99.90
38118;DHT22;23928;47.562;7.508;2024-02-21T00:51:45;5.50;99.90
38118;DHT22;23928;47.562;7.508;2024-02-21T00:54:10;5.60;99.90
38118;DHT22;23928;47.562;7.508;2024-02-21T00:56:36;5.50;99.90
38118;DHT22;23928;47.562;7.508;2024-02-21T00:59:02;5.40;99.90
38118;DHT22;23928;47.562;7.508;2024-02-21T01:01:27;5.40;99.90
38118;DHT22;23928;47.562;7.508;2024-02-21T01:03:53;5.40;99.90
38118;DHT22;23928;47.562;7.508;2024-02-21T01:06:22;5.50;99.90
38118;DHT22;23928;47.562;7.508;2024-02-21T01:08:48;5.50;99.90
38118;DHT22;23928;47.562;7.508;2024-02-21T01:11:15;5.50;99.90
38118;DHT22;23928;47.562;7.508;2024-02-21T01:13:41;5.50;99.90
38118;DHT22;23928;47.562;7.508;2024-02-21T01:16:06;5.60;99.90
38118;DHT22;23928;47.562;7.508;2024-02-21T01:18:37;5.50;99.90
38118;DHT22;23928;47.562;7.508;2024-02-21T01:21:03;5.40;99.90
38118;DHT22;23928;47.562;7.508;2024-02-21T01:23:35;5.50;99.90
38118;DHT22;23928;47.562;7.508;2024-02-21T01:26:01;5.50;99.90
38118;DHT22;23928;47.562;7.508;2024-02-21T01:28:27;5.50;99.90
38118;DHT22;23928;47.562;7.508;2024-02-21T01:30:53;5.50;99.90
38118;DHT22;23928;47.562;7.508;2024-02-21T01:33:18;5.50;99.90
38118;DHT22;23928;47.562;7.508;2024-02-21T01:35:44;5.50;99.90
38118;DHT22;23928;47.562;7.508;2024-02-21T01:38:10;5.60;99.90
38118;DHT22;23928;47.562;7.508;2024-02-21T01:40:36;5.50;99.90
38118;DHT22;23928;47.562;7.508;2024-02-21T01:43:02;5.60;99.90
38118;DHT22;23928;47.562;7.508;2024-02-21T01:45:28;5.50;99.90
38118;DHT22;23928;47.562;7.508;2024-02-21T01:47:54;5.40;99.90
38118;DHT22;23928;47.562;7.508;2024-02-21T01:50:20;5.40;99.90
38118;DHT22;23928;47.562;7.508;2024-02-21T01:52:48;5.30;99.90
38118;DHT22;23928;47.562;7.508;2024-02-21T01:55:16;5.30;99.90
38118;DHT22;23928;47.562;7.508;2024-02-21T01:57:42;5.20;99.90
38118;DHT22;23928;47.562;7.508;2024-02-21T02:00:12;5.20;99.90
38118;DHT22;23928;47.562;7.508;2024-02-21T02:02:39;5.20;99.90
38118;DHT22;23928;47.562;7.508;2024-02-21T02:05:06;5.30;99.90
38118;DHT22;23928;47.562;7.508;2024-02-21T02:07:33;5.30;99.90
38118;DHT22;23928;47.562;7.508;2024-02-21T02:09:58;5.40;99.90
38118;DHT22;23928;47.562;7.508;2024-02-21T02:12:24;5.40;99.90
38118;DHT22;23928;47.562;7.508;2024-02-21T02:15:03;5.50;99.90
38118;DHT22;23928;47.562;7.508;2024-02-21T02:17:31;5.50;99.90
38118;DHT22;23928;47.562;7.508;2024-02-21T02:19:57;5.50;99.90
38118;DHT22;23928;47.562;7.508;2024-02-21T02:22:27;5.60;99.90
38118;DHT22;23928;47.562;7.508;2024-02-21T02:24:53;5.80;99.90
38118;DHT22;23928;47.562;7.508;2024-02-21T02:27:19;5.80;99.90
38118;DHT22;23928;47.562;7.508;2024-02-21T02:29:45;5.70;99.90
38118;DHT22;23928;47.562;7.508;2024-02-21T02:32:11;5.70;99.90
38118;DHT22;23928;47.562;7.508;2024-02-21T02:34:37;5.60;99.90
38118;DHT22;23928;47.562;7.508;2024-02-21T02:37:03;5.60;99.90
38118;DHT22;23928;47.562;7.508;2024-02-21T02:39:28;5.70;99.90
38118;DHT22;23928;47.562;7.508;2024-02-21T02:41:54;5.60;99.90
38118;DHT22;23928;47.562;7.508;2024-02-21T02:44:19;5.50;99.90
38118;DHT22;23928;47.562;7.508;2024-02-21T02:46:45;5.50;99.90
38118;DHT22;23928;47.562;7.508;2024-02-21T02:49:11;5.50;99.90
38118;DHT22;23928;47.562;7.508;2024-02-21T02:51:36;5.50;99.90
38118;DHT22;23928;47.562;7.508;2024-02-21T02:54:02;5.40;99.90
38118;DHT22;23928;47.562;7.508;2024-02-21T02:56:28;5.50;99.90
38118;DHT22;23928;47.562;7.508;2024-02-21T02:58:54;5.40;99.90
38118;DHT22;23928;47.562;7.508;2024-02-21T03:01:19;5.50;99.90
38118;DHT22;23928;47.562;7.508;2024-02-21T03:03:45;5.30;99.90
38118;DHT22;23928;47.562;7.508;2024-02-21T03:06:12;5.30;99.90
38118;DHT22;23928;47.562;7.508;2024-02-21T03:08:38;5.10;99.90
38118;DHT22;23928;47.562;7.508;2024-02-21T03:11:05;5.10;99.90
38118;DHT22;23928;47.562;7.508;2024-02-21T03:13:31;5.10;99.90
38118;DHT22;23928;47.562;7.508;2024-02-21T03:15:56;5.10;99.90
38118;DHT22;23928;47.562;7.508;2024-02-21T03:18:22;5.00;99.90
38118;DHT22;23928;47.562;7.508;2024-02-21T03:20:47;5.00;99.90
38118;DHT22;23928;47.562;7.508;2024-02-21T03:23:13;5.00;99.90
38118;DHT22;23928;47.562;7.508;2024-02-21T03:25:39;4.90;99.90
38118;DHT22;23928;47.562;7.508;2024-02-21T03:28:04;4.80;99.90
38118;DHT22;23928;47.562;7.508;2024-02-21T03:30:30;4.80;99.90
38118;DHT22;23928;47.562;7.508;2024-02-21T03:32:56;4.70;99.90
38118;DHT22;23928;47.562;7.508;2024-02-21T03:35:21;4.60;99.90
38118;DHT22;23928;47.562;7.508;2024-02-21T03:37:47;4.50;99.90
38118;DHT22;23928;47.562;7.508;2024-02-21T03:40:12;4.50;99.90
38118;DHT22;23928;47.562;7.508;2024-02-21T03:42:38;4.50;99.90
38118;DHT22;23928;47.562;7.508;2024-02-21T03:45:04;4.50;99.90
38118;DHT22;23928;47.562;7.508;2024-02-21T03:47:30;4.40;99.90
38118;DHT22;23928;47.562;7.508;2024-02-21T03:49:55;4.40;99.90
38118;DHT22;23928;47.562;7.508;2024-02-21T03:52:22;4.50;99.90
38118;DHT22;23928;47.562;7.508;2024-02-21T03:54:47;4.50;99.90
38118;DHT22;23928;47.562;7.508;2024-02-21T03:57:13;4.50;99.90
38118;DHT22;23928;47.562;7.508;2024-02-21T03:59:39;4.50;99.90
38118;DHT22;23928;47.562;7.508;2024-02-21T04:02:05;4.40;99.90
38118;DHT22;23928;47.562;7.508;2024-02-21T04:04:36;4.40;99.90
38118;DHT22;23928;47.562;7.508;2024-02-21T04:07:03;4.40;99.90
38118;DHT22;23928;47.562;7.508;2024-02-21T04:09:33;4.40;99.90
38118;DHT22;23928;47.562;7.508;2024-02-21T04:12:00;4.30;99.90
38118;DHT22;23928;47.562;7.508;2024-02-21T04:14:26;4.20;99.90
38118;DHT22;23928;47.562;7.508;2024-02-21T04:16:51;4.30;99.90
38118;DHT22;23928;47.562;7.508;2024-02-21T04:19:17;4.30;99.90
38118;DHT22;23928;47.562;7.508;2024-02-21T04:21:42;4.30;99.90
38118;DHT22;23928;47.562;7.508;2024-02-21T04:24:08;4.30;99.90
38118;DHT22;23928;47.562;7.508;2024-02-21T04:26:34;4.30;99.90
38118;DHT22;23928;47.562;7.508;2024-02-21T04:29:00;4.30;99.90
38118;DHT22;23928;47.562;7.508;2024-02-21T04:31:25;4.20;99.90
38118;DHT22;23928;47.562;7.508;2024-02-21T04:33:51;4.10;99.90
38118;DHT22;23928;47.562;7.508;2024-02-21T04:36:16;4.00;99.90
38118;DHT22;23928;47.562;7.508;2024-02-21T04:38:42;4.10;99.90
38118;DHT22;23928;47.562;7.508;2024-02-21T04:41:08;4.10;99.90
38118;DHT22;23928;47.562;7.508;2024-02-21T04:43:33;3.90;99.90
38118;DHT22;23928;47.562;7.508;2024-02-21T04:45:59;4.00;99.90
38118;DHT22;23928;47.562;7.508;2024-02-21T04:48:25;4.10;99.90
38118;DHT22;23928;47.562;7.508;2024-02-21T04:50:51;4.00;99.90
38118;DHT22;23928;47.562;7.508;2024-02-21T04:53:17;3.90;99.90
38118;DHT22;23928;47.562;7.508;2024-02-21T04:55:42;3.90;99.90
38118;DHT22;23928;47.562;7.508;2024-02-21T04:58:08;3.70;99.90
38118;DHT22;23928;47.562;7.508;2024-02-21T05:00:34;3.70;99.90
38118;DHT22;23928;47.562;7.508;2024-02-21T05:02:59;3.70;99.90
38118;DHT22;23928;47.562;7.508;2024-02-21T05:05:25;3.70;99.90
38118;DHT22;23928;47.562;7.508;2024-02-21T05:07:50;3.70;99.90
38118;DHT22;23928;47.562;7.508;2024-02-21T05:10:16;3.70;99.90
38118;DHT22;23928;47.562;7.508;2024-02-21T05:12:43;3.70;99.90
38118;DHT22;23928;47.562;7.508;2024-02-21T05:15:08;3.70;99.90
38118;DHT22;23928;47.562;7.508;2024-02-21T05:17:34;3.70;99.90
38118;DHT22;23928;47.562;7.508;2024-02-21T05:19:59;3.60;99.90
38118;DHT22;23928;47.562;7.508;2024-02-21T05:22:25;3.60;99.90
38118;DHT22;23928;47.562;7.508;2024-02-21T05:24:51;3.40;99.90
38118;DHT22;23928;47.562;7.508;2024-02-21T05:27:16;3.40;99.90
38118;DHT22;23928;47.562;7.508;2024-02-21T05:29:42;3.40;99.90
38118;DHT22;23928;47.562;7.508;2024-02-21T05:32:07;3.40;99.90
38118;DHT22;23928;47.562;7.508;2024-02-21T05:34:33;3.50;99.90
38118;DHT22;23928;47.562;7.508;2024-02-21T05:36:59;3.40;99.90
38118;DHT22;23928;47.562;7.508;2024-02-21T05:39:26;3.50;99.90
38118;DHT22;23928;47.562;7.508;2024-02-21T05:41:52;3.40;99.90
38118;DHT22;23928;47.562;7.508;2024-02-21T05:44:18;3.40;99.90
38118;DHT22;23928;47.562;7.508;2024-02-21T05:46:43;3.40;99.90
38118;DHT22;23928;47.562;7.508;2024-02-21T05:49:09;3.40;99.90
38118;DHT22;23928;47.562;7.508;2024-02-21T05:51:35;3.40;99.90
38118;DHT22;23928;47.562;7.508;2024-02-21T05:54:00;3.30;99.90
38118;DHT22;23928;47.562;7.508;2024-02-21T05:56:26;3.30;99.90
38118;DHT22;23928;47.562;7.508;2024-02-21T05:58:52;3.30;99.90
38118;DHT22;23928;47.562;7.508;2024-02-21T06:01:17;3.20;99.90
38118;DHT22;23928;47.562;7.508;2024-02-21T06:03:43;3.20;99.90
38118;DHT22;23928;47.562;7.508;2024-02-21T06:06:09;3.20;99.90
38118;DHT22;23928;47.562;7.508;2024-02-21T06:08:34;3.20;99.90
38118;DHT22;23928;47.562;7.508;2024-02-21T06:11:00;3.10;99.90
38118;DHT22;23928;47.562;7.508;2024-02-21T06:13:26;3.10;99.90
38118;DHT22;23928;47.562;7.508;2024-02-21T06:15:51;3.10;99.90
38118;DHT22;23928;47.562;7.508;2024-02-21T06:18:17;3.20;99.90
38118;DHT22;23928;47.562;7.508;2024-02-21T06:20:43;3.10;99.90
38118;DHT22;23928;47.562;7.508;2024-02-21T06:23:09;3.10;99.90
38118;DHT22;23928;47.562;7.508;2024-02-21T06:25:35;3.10;99.90
38118;DHT22;23928;47.562;7.508;2024-02-21T06:28:00;3.00;99.90
38118;DHT22;23928;47.562;7.508;2024-02-21T06:30:26;2.90;99.90
38118;DHT22;23928;47.562;7.508;2024-02-21T06:32:52;3.00;99.90
38118;DHT22;23928;47.562;7.508;2024-02-21T06:35:17;2.90;99.90
38118;DHT22;23928;47.562;7.508;2024-02-21T06:37:43;3.00;99.90
38118;DHT22;23928;47.562;7.508;2024-02-21T06:40:10;3.10;99.90
38118;DHT22;23928;47.562;7.508;2024-02-21T06:42:36;3.10;99.90
38118;DHT22;23928;47.562;7.508;2024-02-21T06:45:02;3.20;99.90
38118;DHT22;23928;47.562;7.508;2024-02-21T06:47:27;3.20;99.90
38118;DHT22;23928;47.562;7.508;2024-02-21T06:49:53;3.30;99.90
38118;DHT22;23928;47.562;7.508;2024-02-21T06:52:19;3.30;99.90
38118;DHT22;23928;47.562;7.508;2024-02-21T06:54:48;3.30;99.90
38118;DHT22;23928;47.562;7.508;2024-02-21T06:57:13;3.30;99.90
38118;DHT22;23928;47.562;7.508;2024-02-21T06:59:41;3.40;99.90
38118;DHT22;23928;47.562;7.508;2024-02-21T07:02:06;3.40;99.90
38118;DHT22;23928;47.562;7.508;2024-02-21T07:04:32;3.50;99.90
38118;DHT22;23928;47.562;7.508;2024-02-21T07:06:58;3.50;99.90
38118;DHT22;23928;47.562;7.508;2024-02-21T07:09:23;3.60;99.90
38118;DHT22;23928;47.562;7.508;2024-02-21T07:11:49;3.60;99.90
38118;DHT22;23928;47.562;7.508;2024-02-21T07:14:14;3.60;99.90
38118;DHT22;23928;47.562;7.508;2024-02-21T07:16:40;3.70;99.90
38118;DHT22;23928;47.562;7.508;2024-02-21T07:19:06;3.80;99.90
38118;DHT22;23928;47.562;7.508;2024-02-21T07:21:32;3.90;99.90
38118;DHT22;23928;47.562;7.508;2024-02-21T07:23:58;3.90;99.90
38118;DHT22;23928;47.562;7.508;2024-02-21T07:26:23;4.00;99.90
38118;DHT22;23928;47.562;7.508;2024-02-21T07:28:49;4.10;99.90
38118;DHT22;23928;47.562;7.508;2024-02-21T07:31:15;4.00;99.90
38118;DHT22;23928;47.562;7.508;2024-02-21T07:33:40;3.90;99.90
38118;DHT22;23928;47.562;7.508;2024-02-21T07:36:07;4.00;99.90
38118;DHT22;23928;47.562;7.508;2024-02-21T07:38:34;4.20;99.90
38118;DHT22;23928;47.562;7.508;2024-02-21T07:40:59;4.30;99.90
38118;DHT22;23928;47.562;7.508;2024-02-21T07:43:25;4.40;99.90
38118;DHT22;23928;47.562;7.508;2024-02-21T07:45:52;4.50;99.90
38118;DHT22;23928;47.562;7.508;2024-02-21T07:48:18;4.60;99.90
38118;DHT22;23928;47.562;7.508;2024-02-21T07:50:44;4.60;99.90
38118;DHT22;23928;47.562;7.508;2024-02-21T07:53:10;4.60;99.90
38118;DHT22;23928;47.562;7.508;2024-02-21T07:55:35;4.70;99.90
38118;DHT22;23928;47.562;7.508;2024-02-21T07:58:01;4.70;99.90
38118;DHT22;23928;47.562;7.508;2024-02-21T08:00:26;4.60;99.90
38118;DHT22;23928;47.562;7.508;2024-02-21T08:02:52;4.60;99.90
38118;DHT22;23928;47.562;7.508;2024-02-21T08:05:18;4.70;99.90
38118;DHT22;23928;47.562;7.508;2024-02-21T08:07:44;4.80;99.90
38118;DHT22;23928;47.562;7.508;2024-02-21T08:10:09;5.00;99.90
38118;DHT22;23928;47.562;7.508;2024-02-21T08:12:35;5.10;99.90
38118;DHT22;23928;47.562;7.508;2024-02-21T08:15:02;5.30;99.90
38118;DHT22;23928;47.562;7.508;2024-02-21T08:17:30;5.20;99.90
38118;DHT22;23928;47.562;7.508;2024-02-21T08:19:56;5.40;99.90
38118;DHT22;23928;47.562;7.508;2024-02-21T08:22:22;5.50;99.90
38118;DHT22;23928;47.562;7.508;2024-02-21T08:24:47;5.60;99.90
38118;DHT22;23928;47.562;7.508;2024-02-21T08:27:13;5.70;99.90
38118;DHT22;23928;47.562;7.508;2024-02-21T08:29:38;5.80;99.90
38118;DHT22;23928;47.562;7.508;2024-02-21T08:32:04;5.80;99.90
38118;DHT22;23928;47.562;7.508;2024-02-21T08:34:30;5.50;99.90
38118;DHT22;23928;47.562;7.508;2024-02-21T08:36:59;5.70;99.90
38118;DHT22;23928;47.562;7.508;2024-02-21T08:39:25;5.70;99.90
38118;DHT22;23928;47.562;7.508;2024-02-21T08:41:51;5.80;99.90
38118;DHT22;23928;47.562;7.508;2024-02-21T08:44:16;5.90;99.90
38118;DHT22;23928;47.562;7.508;2024-02-21T08:46:42;6.00;99.90
38118;DHT22;23928;47.562;7.508;2024-02-21T08:49:09;6.00;99.90
38118;DHT22;23928;47.562;7.508;2024-02-21T08:51:35;6.10;99.90
38118;DHT22;23928;47.562;7.508;2024-02-21T08:54:01;6.20;99.90
38118;DHT22;23928;47.562;7.508;2024-02-21T08:56:27;6.40;99.90
38118;DHT22;23928;47.562;7.508;2024-02-21T08:58:55;6.50;99.90
38118;DHT22;23928;47.562;7.508;2024-02-21T09:01:21;6.40;99.90
38118;DHT22;23928;47.562;7.508;2024-02-21T09:03:47;6.70;99.90
38118;DHT22;23928;47.562;7.508;2024-02-21T09:06:13;6.80;99.90
38118;DHT22;23928;47.562;7.508;2024-02-21T09:08:39;6.80;99.90
38118;DHT22;23928;47.562;7.508;2024-02-21T09:11:06;6.90;99.90
38118;DHT22;23928;47.562;7.508;2024-02-21T09:13:32;6.90;99.90
38118;DHT22;23928;47.562;7.508;2024-02-21T09:15:57;7.00;99.90
38118;DHT22;23928;47.562;7.508;2024-02-21T09:18:23;7.10;99.90
38118;DHT22;23928;47.562;7.508;2024-02-21T09:20:48;7.10;99.90
38118;DHT22;23928;47.562;7.508;2024-02-21T09:23:14;7.30;99.90
38118;DHT22;23928;47.562;7.508;2024-02-21T09:25:39;7.40;99.90
38118;DHT22;23928;47.562;7.508;2024-02-21T09:28:05;7.40;99.90
38118;DHT22;23928;47.562;7.508;2024-02-21T09:30:35;7.50;99.90
38118;DHT22;23928;47.562;7.508;2024-02-21T09:33:00;7.70;99.90
38118;DHT22;23928;47.562;7.508;2024-02-21T09:35:28;7.70;99.90
38118;DHT22;23928;47.562;7.508;2024-02-21T09:37:53;7.80;99.90
38118;DHT22;23928;47.562;7.508;2024-02-21T09:40:20;7.80;99.90
38118;DHT22;23928;47.562;7.508;2024-02-21T09:42:47;7.90;99.90
38118;DHT22;23928;47.562;7.508;2024-02-21T09:45:23;7.90;99.90
38118;DHT22;23928;47.562;7.508;2024-02-21T09:50:43;8.00;99.90
38118;DHT22;23928;47.562;7.508;2024-02-21T09:53:12;8.20;99.90
38118;DHT22;23928;47.562;7.508;2024-02-21T09:55:38;8.10;99.90
38118;DHT22;23928;47.562;7.508;2024-02-21T09:58:07;8.20;99.90
38118;DHT22;23928;47.562;7.508;2024-02-21T10:00:33;8.30;99.90
38118;DHT22;23928;47.562;7.508;2024-02-21T10:02:59;8.50;99.90
38118;DHT22;23928;47.562;7.508;2024-02-21T10:05:24;8.40;99.90
38118;DHT22;23928;47.562;7.508;2024-02-21T10:07:51;8.30;99.90
38118;DHT22;23928;47.562;7.508;2024-02-21T10:10:17;8.60;99.90
38118;DHT22;23928;47.562;7.508;2024-02-21T10:12:52;8.60;99.90
38118;DHT22;23928;47.562;7.508;2024-02-21T10:15:22;8.80;99.90
38118;DHT22;23928;47.562;7.508;2024-02-21T10:17:48;8.70;99.90
38118;DHT22;23928;47.562;7.508;2024-02-21T10:20:14;8.90;99.90
38118;DHT22;23928;47.562;7.508;2024-02-21T10:22:40;9.10;99.90
38118;DHT22;23928;47.562;7.508;2024-02-21T10:25:10;9.10;99.90
38118;DHT22;23928;47.562;7.508;2024-02-21T10:27:36;9.30;99.90
38118;DHT22;23928;47.562;7.508;2024-02-21T10:30:03;9.20;99.90
38118;DHT22;23928;47.562;7.508;2024-02-21T10:32:29;9.20;99.90
38118;DHT22;23928;47.562;7.508;2024-02-21T10:35:03;9.40;99.90
38118;DHT22;23928;47.562;7.508;2024-02-21T10:37:34;9.40;99.90
38118;DHT22;23928;47.562;7.508;2024-02-21T10:40:00;9.60;99.90
38118;DHT22;23928;47.562;7.508;2024-02-21T10:42:29;9.70;99.90
38118;DHT22;23928;47.562;7.508;2024-02-21T10:45:01;9.70;99.90
38118;DHT22;23928;47.562;7.508;2024-02-21T10:47:31;9.90;99.90
38118;DHT22;23928;47.562;7.508;2024-02-21T10:50:02;10.00;99.90
38118;DHT22;23928;47.562;7.508;2024-02-21T10:52:48;9.80;99.90
38118;DHT22;23928;47.562;7.508;2024-02-21T10:55:29;9.50;99.90
38118;DHT22;23928;47.562;7.508;2024-02-21T10:57:58;9.50;99.90
38118;DHT22;23928;47.562;7.508;2024-02-21T11:00:26;9.40;99.90
38118;DHT22;23928;47.562;7.508;2024-02-21T11:02:59;9.40;99.90
38118;DHT22;23928;47.562;7.508;2024-02-21T11:05:25;9.70;99.90
38118;DHT22;23928;47.562;7.508;2024-02-21T11:07:53;9.80;99.90
38118;DHT22;23928;47.562;7.508;2024-02-21T11:10:26;10.00;99.90
38118;DHT22;23928;47.562;7.508;2024-02-21T11:13:07;10.30;99.90
38118;DHT22;23928;47.562;7.508;2024-02-21T11:15:33;10.40;99.90
38118;DHT22;23928;47.562;7.508;2024-02-21T11:17:59;10.50;99.90
38118;DHT22;23928;47.562;7.508;2024-02-21T11:20:38;10.10;99.90
38118;DHT22;23928;47.562;7.508;2024-02-21T11:23:04;10.30;99.90
38118;DHT22;23928;47.562;7.508;2024-02-21T11:25:30;10.60;99.90
38118;DHT22;23928;47.562;7.508;2024-02-21T11:28:04;10.60;99.90
38118;DHT22;23928;47.562;7.508;2024-02-21T11:30:30;10.90;99.90
38118;DHT22;23928;47.562;7.508;2024-02-21T11:33:06;10.90;99.90
38118;DHT22;23928;47.562;7.508;2024-02-21T11:35:35;10.80;99.90
38118;DHT22;23928;47.562;7.508;2024-02-21T11:38:11;11.00;99.90
38118;DHT22;23928;47.562;7.508;2024-02-21T11:40:40;10.80;99.90
38118;DHT22;23928;47.562;7.508;2024-02-21T11:43:06;10.90;99.90
38118;DHT22;23928;47.562;7.508;2024-02-21T11:45:32;10.90;99.90
38118;DHT22;23928;47.562;7.508;2024-02-21T11:47:59;11.00;99.90
38118;DHT22;23928;47.562;7.508;2024-02-21T11:50:31;11.00;99.90
38118;DHT22;23928;47.562;7.508;2024-02-21T11:52:57;11.00;99.90
38118;DHT22;23928;47.562;7.508;2024-02-21T11:55:23;11.10;99.90
38118;DHT22;23928;47.562;7.508;2024-02-21T11:57:49;11.20;99.90
38118;DHT22;23928;47.562;7.508;2024-02-21T12:00:19;11.30;99.90
38118;DHT22;23928;47.562;7.508;2024-02-21T12:02:47;11.50;99.90
38118;DHT22;23928;47.562;7.508;2024-02-21T12:05:13;11.50;99.90
38118;DHT22;23928;47.562;7.508;2024-02-21T12:07:40;11.70;99.90
38118;DHT22;23928;47.562;7.508;2024-02-21T12:10:10;11.70;99.90
38118;DHT22;23928;47.562;7.508;2024-02-21T12:12:36;11.70;99.90
38118;DHT22;23928;47.562;7.508;2024-02-21T12:15:03;11.70;99.90
38118;DHT22;23928;47.562;7.508;2024-02-21T12:17:30;11.90;99.90
38118;DHT22;23928;47.562;7.508;2024-02-21T12:19:56;12.00;99.90
38118;DHT22;23928;47.562;7.508;2024-02-21T12:22:22;11.90;99.90
38118;DHT22;23928;47.562;7.508;2024-02-21T12:24:48;11.90;99.90
38118;DHT22;23928;47.562;7.508;2024-02-21T12:27:14;11.90;99.90
38118;DHT22;23928;47.562;7.508;2024-02-21T12:29:39;12.10;99.90
38118;DHT22;23928;47.562;7.508;2024-02-21T12:32:05;12.30;99.90
38118;DHT22;23928;47.562;7.508;2024-02-21T12:34:31;12.30;99.90
38118;DHT22;23928;47.562;7.508;2024-02-21T12:37:02;12.40;99.90
38118;DHT22;23928;47.562;7.508;2024-02-21T12:39:28;12.30;99.90
38118;DHT22;23928;47.562;7.508;2024-02-21T12:41:54;12.00;99.90
38118;DHT22;23928;47.562;7.508;2024-02-21T12:44:21;11.90;99.90
38118;DHT22;23928;47.562;7.508;2024-02-21T12:46:47;11.80;99.90
38118;DHT22;23928;47.562;7.508;2024-02-21T12:49:17;11.90;99.90
38118;DHT22;23928;47.562;7.508;2024-02-21T12:51:43;12.20;99.90
38118;DHT22;23928;47.562;7.508;2024-02-21T12:54:09;12.30;99.90
38118;DHT22;23928;47.562;7.508;2024-02-21T12:56:36;12.40;99.90
38118;DHT22;23928;47.562;7.508;2024-02-21T12:59:02;12.30;99.90
38118;DHT22;23928;47.562;7.508;2024-02-21T13:01:28;12.40;99.90
38118;DHT22;23928;47.562;7.508;2024-02-21T13:03:53;12.30;99.90
38118;DHT22;23928;47.562;7.508;2024-02-21T13:06:19;12.40;99.90
38118;DHT22;23928;47.562;7.508;2024-02-21T13:08:45;12.50;99.90
38118;DHT22;23928;47.562;7.508;2024-02-21T13:11:12;12.70;99.90
38118;DHT22;23928;47.562;7.508;2024-02-21T13:13:38;12.60;99.90
38118;DHT22;23928;47.562;7.508;2024-02-21T13:16:04;12.50;99.90
38118;DHT22;23928;47.562;7.508;2024-02-21T13:18:29;12.40;99.90
38118;DHT22;23928;47.562;7.508;2024-02-21T13:20:55;12.20;99.90
38118;DHT22;23928;47.562;7.508;2024-02-21T13:23:21;12.40;99.90
38118;DHT22;23928;47.562;7.508;2024-02-21T13:25:47;12.20;99.90
38118;DHT22;23928;47.562;7.508;2024-02-21T13:28:12;12.00;99.90
38118;DHT22;23928;47.562;7.508;2024-02-21T13:30:40;12.00;99.90
38118;DHT22;23928;47.562;7.508;2024-02-21T13:33:07;11.90;99.90
38118;DHT22;23928;47.562;7.508;2024-02-21T13:35:32;12.00;99.90
38118;DHT22;23928;47.562;7.508;2024-02-21T13:37:58;11.90;99.90
38118;DHT22;23928;47.562;7.508;2024-02-21T13:40:23;12.00;99.90
38118;DHT22;23928;47.562;7.508;2024-02-21T13:42:50;12.20;99.90
38118;DHT22;23928;47.562;7.508;2024-02-21T13:45:16;12.20;99.90
38118;DHT22;23928;47.562;7.508;2024-02-21T13:47:42;12.30;99.90
38118;DHT22;23928;47.562;7.508;2024-02-21T13:50:08;12.50;99.90
38118;DHT22;23928;47.562;7.508;2024-02-21T13:52:37;12.20;99.90
38118;DHT22;23928;47.562;7.508;2024-02-21T13:55:03;12.20;99.90
38118;DHT22;23928;47.562;7.508;2024-02-21T13:57:29;12.30;99.90
38118;DHT22;23928;47.562;7.508;2024-02-21T13:59:54;12.50;99.90
38118;DHT22;23928;47.562;7.508;2024-02-21T14:02:20;12.70;99.90
38118;DHT22;23928;47.562;7.508;2024-02-21T14:04:46;12.70;99.90
38118;DHT22;23928;47.562;7.508;2024-02-21T14:07:12;12.50;99.90
38118;DHT22;23928;47.562;7.508;2024-02-21T14:09:38;12.70;99.90
38118;DHT22;23928;47.562;7.508;2024-02-21T14:12:03;12.60;99.90
38118;DHT22;23928;47.562;7.508;2024-02-21T14:14:34;12.60;99.90
38118;DHT22;23928;47.562;7.508;2024-02-21T14:17:00;12.50;99.90
38118;DHT22;23928;47.562;7.508;2024-02-21T14:19:25;12.40;99.90
38118;DHT22;23928;47.562;7.508;2024-02-21T14:21:51;12.30;99.90
38118;DHT22;23928;47.562;7.508;2024-02-21T14:24:16;12.40;99.90
38118;DHT22;23928;47.562;7.508;2024-02-21T14:26:42;12.50;99.90
38118;DHT22;23928;47.562;7.508;2024-02-21T14:29:08;12.40;99.90
38118;DHT22;23928;47.562;7.508;2024-02-21T14:31:33;12.40;99.90
38118;DHT22;23928;47.562;7.508;2024-02-21T14:33:59;12.40;99.90
38118;DHT22;23928;47.562;7.508;2024-02-21T14:36:26;12.50;99.90
38118;DHT22;23928;47.562;7.508;2024-02-21T14:38:52;12.40;99.90
38118;DHT22;23928;47.562;7.508;2024-02-21T14:41:18;12.40;99.90
38118;DHT22;23928;47.562;7.508;2024-02-21T14:43:44;12.40;99.90
38118;DHT22;23928;47.562;7.508;2024-02-21T14:46:12;12.30;99.90
38118;DHT22;23928;47.562;7.508;2024-02-21T14:48:38;12.30;99.90
38118;DHT22;23928;47.562;7.508;2024-02-21T14:51:04;12.30;99.90
38118;DHT22;23928;47.562;7.508;2024-02-21T14:53:30;12.30;99.90
38118;DHT22;23928;47.562;7.508;2024-02-21T14:55:56;12.20;99.90
38118;DHT22;23928;47.562;7.508;2024-02-21T14:58:23;12.20;99.90
38118;DHT22;23928;47.562;7.508;2024-02-21T15:00:49;12.10;99.90
38118;DHT22;23928;47.562;7.508;2024-02-21T15:03:16;12.10;99.90
38118;DHT22;23928;47.562;7.508;2024-02-21T15:05:45;12.00;99.90
38118;DHT22;23928;47.562;7.508;2024-02-21T15:08:10;12.00;99.90
38118;DHT22;23928;47.562;7.508;2024-02-21T15:10:37;12.00;99.90
38118;DHT22;23928;47.562;7.508;2024-02-21T15:13:03;11.90;99.90
38118;DHT22;23928;47.562;7.508;2024-02-21T15:15:29;11.80;99.90
38118;DHT22;23928;47.562;7.508;2024-02-21T15:17:54;11.80;99.90
38118;DHT22;23928;47.562;7.508;2024-02-21T15:20:20;11.70;99.90
38118;DHT22;23928;47.562;7.508;2024-02-21T15:22:46;11.60;99.90
38118;DHT22;23928;47.562;7.508;2024-02-21T15:25:11;11.70;99.90
38118;DHT22;23928;47.562;7.508;2024-02-21T15:27:41;11.70;99.90
38118;DHT22;23928;47.562;7.508;2024-02-21T15:30:09;11.70;99.90
38118;DHT22;23928;47.562;7.508;2024-02-21T15:32:34;11.60;99.90
38118;DHT22;23928;47.562;7.508;2024-02-21T15:35:03;11.60;99.90
38118;DHT22;23928;47.562;7.508;2024-02-21T15:37:28;11.60;99.90
38118;DHT22;23928;47.562;7.508;2024-02-21T15:39:54;11.60;99.90